Time;durP1;ratioP1;P1;durP2;ratioP2;P2;SDS_P1;SDS_P2;PMS_P1;PMS_P2;Temp;Humidity;BMP_temperature;BMP_pressure;BME280_temperature;BME280_humidity;BME280_pressure;Samples;Min_cycle;Max_cycle;Signal;HPM_P1;HPM_P2
2022/02/04 00:01:53;;;;;;;53.35;21.88;;;;;;;-2.83;62.10;99580.53;5029753;28;20119;-75
2022/02/04 00:09:06;;;;;;;54.97;21.88;;;;;;;-2.87;62.29;99564.22;4960978;28;20134;-77
2022/02/04 00:28:04;;;;;;;51.85;21.33;;;;;;;-2.81;62.11;99525.44;5008845;28;20116;-80
2022/02/04 00:30:35;;;;;;;51.67;22.13;;;;;;;-2.65;62.29;99546.41;5028763;28;20115;-77
2022/02/04 00:33:03;;;;;;;48.92;21.55;;;;;;;-2.55;62.16;99561.28;5031792;28;20052;-76
2022/02/04 00:38:06;;;;;;;51.55;21.60;;;;;;;-2.56;62.09;99557.00;5029548;28;20061;-76
2022/02/04 00:40:41;;;;;;;52.47;21.08;;;;;;;-2.46;62.22;99570.97;5014920;28;20048;-75
2022/02/04 00:43:10;;;;;;;51.15;21.60;;;;;;;-2.50;62.06;99557.22;4995481;28;20053;-77
2022/02/04 00:45:46;;;;;;;50.65;22.85;;;;;;;-2.53;62.08;99554.53;5008262;28;20515;-78
2022/02/04 00:51:02;;;;;;;51.63;22.65;;;;;;;-2.60;61.48;99563.63;5029782;28;20075;-76
2022/02/04 00:56:08;;;;;;;58.55;23.80;;;;;;;-2.98;62.28;99518.78;5025435;28;20130;-79
2022/02/04 01:28:25;;;;;;;58.67;23.50;;;;;;;-3.73;61.73;99579.22;5028886;28;20037;-81
2022/02/04 01:30:51;;;;;;;57.97;24.13;;;;;;;-3.77;62.12;99592.59;5027990;28;20061;-80
2022/02/04 01:33:17;;;;;;;63.70;23.15;;;;;;;-3.86;62.24;99593.06;5027010;28;20136;-79
2022/02/04 01:35:44;;;;;;;57.72;23.30;;;;;;;-4.12;62.06;99569.84;5030583;28;20493;-76
2022/02/04 01:38:09;;;;;;;60.50;23.05;;;;;;;-4.07;62.30;99584.44;5030042;28;20073;-78
2022/02/04 01:40:35;;;;;;;59.58;22.67;;;;;;;-4.09;62.27;99579.31;5016264;28;20056;-78
2022/02/04 01:43:01;;;;;;;48.53;21.15;;;;;;;-4.18;62.09;99577.19;5016363;28;20061;-78
2022/02/04 01:45:27;;;;;;;57.67;22.42;;;;;;;-4.08;62.67;99611.53;5009318;28;20041;-76
2022/02/04 01:47:56;;;;;;;54.72;21.00;;;;;;;-4.08;62.62;99603.91;5010121;28;20091;-77
2022/02/04 01:50:28;;;;;;;56.25;22.02;;;;;;;-4.29;62.17;99586.84;4994445;28;20202;-81
2022/02/04 01:52:59;;;;;;;55.05;21.83;;;;;;;-4.30;62.37;99592.72;5028157;28;20460;-81
2022/02/04 01:55:26;;;;;;;61.78;22.88;;;;;;;-4.29;62.25;99612.25;5027737;28;20095;-80
2022/02/04 01:57:52;;;;;;;54.72;21.40;;;;;;;-4.49;62.55;99578.28;5011967;28;20049;-76
2022/02/04 02:00:18;;;;;;;55.25;22.30;;;;;;;-4.31;62.53;99597.75;4996998;28;20099;-80
2022/02/04 02:02:44;;;;;;;55.15;20.85;;;;;;;-4.33;62.37;99595.13;5026027;28;20077;-77
2022/02/04 02:05:10;;;;;;;53.38;21.60;;;;;;;-4.43;62.66;99573.50;4998171;28;20072;-80
2022/02/04 02:07:46;;;;;;;52.75;21.05;;;;;;;-4.37;62.51;99598.34;5003573;28;20136;-79
2022/02/04 02:10:15;;;;;;;56.03;22.10;;;;;;;-4.32;63.03;99599.44;5036712;28;20028;-76
2022/02/04 02:12:54;;;;;;;56.10;21.45;;;;;;;-4.36;62.78;99581.41;5006779;28;20038;-76
2022/02/04 02:37:43;;;;;;;55.50;22.35;;;;;;;-4.14;62.56;99613.78;5025101;28;20048;-79
2022/02/04 02:58:17;;;;;;;59.97;23.52;;;;;;;-4.01;62.15;99626.28;4998287;28;20073;-77
2022/02/04 03:01:01;;;;;;;55.67;22.75;;;;;;;-4.28;61.77;99592.81;5023056;28;20042;-78
2022/02/04 03:03:30;;;;;;;60.58;23.70;;;;;;;-4.11;62.19;99626.66;5001353;28;20045;-79
2022/02/04 03:05:56;;;;;;;58.72;23.77;;;;;;;-4.16;62.32;99612.84;5003135;28;20041;-77
2022/02/04 03:08:22;;;;;;;65.28;25.02;;;;;;;-4.16;61.65;99623.00;5009413;28;21465;-77
2022/02/04 03:10:53;;;;;;;55.22;23.85;;;;;;;-4.15;62.14;99625.63;5024648;28;20041;-77
2022/02/04 03:13:24;;;;;;;59.20;22.75;;;;;;;-4.33;61.74;99622.22;4999644;28;20125;-79
2022/02/04 03:15:58;;;;;;;52.35;22.75;;;;;;;-4.42;61.81;99609.94;5006275;28;20139;-79
2022/02/04 03:18:26;;;;;;;54.22;23.17;;;;;;;-4.39;62.07;99622.78;4992740;28;20045;-77
2022/02/04 03:20:55;;;;;;;59.03;22.58;;;;;;;-4.41;61.68;99619.31;5015282;28;20045;-75
2022/02/04 03:23:23;;;;;;;56.15;23.17;;;;;;;-4.41;62.04;99622.69;5008753;28;20037;-77
2022/02/04 03:25:53;;;;;;;61.08;22.83;;;;;;;-4.31;61.87;99635.84;4988946;28;20152;-76
2022/02/04 03:28:27;;;;;;;62.80;24.40;;;;;;;-4.33;62.25;99619.66;5020938;28;20038;-78
2022/02/04 03:30:55;;;;;;;53.67;22.63;;;;;;;-4.17;61.52;99644.16;5002703;28;20045;-77
2022/02/04 03:33:25;;;;;;;59.47;22.67;;;;;;;-4.28;61.46;99619.06;4989472;28;20056;-79
2022/02/04 03:35:51;;;;;;;55.83;23.85;;;;;;;-4.23;61.60;99637.09;4974260;28;20038;-80
2022/02/04 03:38:16;;;;;;;57.15;24.17;;;;;;;-4.21;61.41;99650.75;5005233;28;20497;-75
2022/02/04 03:40:42;;;;;;;60.72;22.70;;;;;;;-4.20;61.71;99655.06;5009642;28;20044;-77
2022/02/04 03:43:08;;;;;;;56.92;23.92;;;;;;;-4.25;61.55;99666.66;4992656;28;20370;-77
2022/02/04 03:45:34;;;;;;;56.42;24.10;;;;;;;-4.35;61.92;99650.09;5024087;28;20054;-77
2022/02/04 03:48:00;;;;;;;59.13;23.45;;;;;;;-4.19;61.91;99661.84;5006781;28;20067;-79
2022/02/04 03:50:27;;;;;;;52.05;21.70;;;;;;;-4.32;61.68;99616.31;5019513;28;20041;-76
2022/02/04 03:52:52;;;;;;;57.75;23.38;;;;;;;-4.24;61.64;99625.19;5018687;28;20064;-80
2022/02/04 03:55:18;;;;;;;58.20;23.05;;;;;;;-4.07;61.52;99653.94;5011709;28;20049;-78
2022/02/04 03:57:44;;;;;;;58.92;24.02;;;;;;;-4.23;61.36;99626.94;4991957;28;20049;-78
2022/02/04 04:00:13;;;;;;;52.80;22.58;;;;;;;-4.06;61.83;99640.44;4982120;28;20048;-76
2022/02/04 04:02:42;;;;;;;61.00;23.73;;;;;;;-4.04;61.58;99628.66;5024708;28;20078;-77
2022/02/04 04:05:10;;;;;;;61.40;25.85;;;;;;;-3.92;61.83;99642.75;5023824;28;20044;-80
2022/02/04 04:07:42;;;;;;;68.03;26.58;;;;;;;-4.04;61.42;99617.63;4993055;28;20045;-76
2022/02/04 04:10:12;;;;;;;60.67;26.10;;;;;;;-3.91;61.67;99619.09;4985199;28;20048;-76
2022/02/04 04:12:38;;;;;;;62.35;26.25;;;;;;;-3.63;61.55;99654.28;4984339;28;20085;-78
2022/02/04 04:15:07;;;;;;;69.13;26.10;;;;;;;-3.76;61.43;99637.59;4997097;28;20061;-81
2022/02/04 04:17:39;;;;;;;68.13;27.15;;;;;;;-3.68;61.12;99645.56;5022852;28;20124;-83
2022/02/04 04:20:09;;;;;;;67.05;26.77;;;;;;;-3.69;61.60;99649.78;5002011;28;20073;-79
2022/02/04 04:22:35;;;;;;;58.60;25.92;;;;;;;-3.75;61.29;99641.00;5024418;28;20041;-78
2022/02/04 04:25:03;;;;;;;60.53;26.35;;;;;;;-3.71;61.60;99648.84;5023510;28;20037;-80
2022/02/04 04:27:30;;;;;;;66.70;27.20;;;;;;;-3.78;61.34;99651.91;5022400;28;20104;-83
2022/02/04 04:29:56;;;;;;;65.00;26.75;;;;;;;-3.99;62.06;99622.13;5008174;28;20029;-79
2022/02/04 04:32:21;;;;;;;67.45;27.02;;;;;;;-3.81;61.67;99667.00;5024007;28;20048;-79
2022/02/04 04:34:47;;;;;;;71.38;26.73;;;;;;;-3.87;61.90;99651.50;5003186;28;20084;-79
2022/02/04 04:37:13;;;;;;;66.05;27.13;;;;;;;-3.79;62.33;99662.88;5022243;28;20041;-80
2022/02/04 04:42:57;;;;;;;62.42;24.92;;;;;;;-3.87;62.12;99646.41;4978419;28;20512;-77
2022/02/04 05:29:14;;;;;;;70.85;25.70;;;;;;;-4.48;62.73;99670.59;4998046;28;20030;-75
2022/02/04 05:31:41;;;;;;;67.80;26.63;;;;;;;-4.29;63.07;99701.19;5039080;28;20037;-76
2022/02/04 05:34:07;;;;;;;64.28;25.25;;;;;;;-4.32;62.49;99696.00;5030552;28;20069;-80
2022/02/04 05:36:37;;;;;;;66.53;25.77;;;;;;;-4.30;62.84;99694.38;5008335;28;20073;-78
2022/02/04 05:39:03;;;;;;;68.30;26.38;;;;;;;-4.48;62.64;99662.97;4986108;28;20401;-77
2022/02/04 05:41:32;;;;;;;59.30;26.20;;;;;;;-4.15;62.53;99706.09;4993909;28;20037;-78
2022/02/04 05:44:07;;;;;;;63.67;27.08;;;;;;;-4.35;62.64;99659.38;5009701;28;20136;-78
2022/02/04 05:46:39;;;;;;;66.55;26.35;;;;;;;-4.12;62.44;99679.16;5023461;28;20036;-76
2022/02/04 05:49:05;;;;;;;;;;;;;;;-3.85;62.70;99700.72;5021762;28;20398;-80
2022/02/04 05:54:11;;;;;;;63.30;25.77;;;;;;;-3.78;62.16;99692.59;5010771;28;20045;-78
2022/02/04 06:23:11;;;;;;;54.42;23.95;;;;;;;-1.92;61.32;99703.13;5011994;28;20393;-76
2022/02/04 06:25:39;;;;;;;59.60;24.15;;;;;;;-1.95;61.32;99687.72;4996800;28;20109;-76
2022/02/04 06:28:05;;;;;;;57.28;23.20;;;;;;;-1.74;61.50;99689.34;5011582;28;20565;-76
2022/02/04 06:30:34;;;;;;;49.50;22.92;;;;;;;-1.70;60.89;99676.78;5006725;28;20143;-77
2022/02/04 06:33:00;;;;;;;55.25;22.73;;;;;;;-1.55;61.15;99686.69;5087891;23;20087;-79
2022/02/04 06:35:40;;;;;;;53.00;23.10;;;;;;;-1.40;60.13;99675.31;5055418;28;20443;-79
2022/02/04 06:38:05;;;;;;;50.25;22.25;;;;;;;-1.07;60.42;99693.56;5019950;28;20041;-77
2022/02/04 06:40:31;;;;;;;51.03;23.25;;;;;;;-1.01;60.71;99653.75;5022012;28;20047;-76
2022/02/04 06:43:00;;;;;;;52.72;23.88;;;;;;;-0.43;59.86;99690.66;5022373;28;20131;-76
2022/02/04 06:45:26;;;;;;;49.65;22.77;;;;;;;-0.30;59.58;99656.16;5021924;28;20045;-76
2022/02/04 06:47:52;;;;;;;52.03;20.52;;;;;;;-0.18;58.38;99686.38;5027808;28;20090;-75
2022/02/04 06:51:38;;;;;;;;;;;;;;;;;;;;;
2022/02/04 06:54:07;;;;;;;44.33;20.83;;;;;;;-0.25;59.38;99603.47;4972074;28;20105;-77
2022/02/04 06:56:36;;;;;;;45.20;21.75;;;;;;;0.37;58.86;99636.03;4971668;28;20054;-76
2022/02/04 06:59:05;;;;;;;47.28;21.73;;;;;;;0.40;58.61;99558.44;4955739;28;20079;-77
2022/02/04 07:01:32;;;;;;;48.78;21.17;;;;;;;0.96;58.03;99548.00;4972205;28;20514;-77
2022/02/04 07:04:03;;;;;;;45.58;21.05;;;;;;;2.19;57.14;99636.47;4923087;28;20125;-77
2022/02/04 07:06:33;;;;;;;47.20;20.88;;;;;;;2.76;56.71;99659.06;5027047;28;20459;-77
2022/02/04 07:09:18;;;;;;;43.92;20.90;;;;;;;2.63;55.91;99639.97;5047811;28;20041;-74
2022/02/04 07:14:31;;;;;;;47.50;20.85;;;;;;;2.39;55.24;99683.13;5055543;28;20055;-80
2022/02/04 07:19:48;;;;;;;47.03;21.33;;;;;;;2.29;55.06;99681.19;5052811;28;20037;-80
2022/02/04 07:22:19;;;;;;;43.22;20.85;;;;;;;2.41;54.96;99691.72;5053758;28;20407;-79
2022/02/04 07:24:46;;;;;;;46.33;20.83;;;;;;;2.51;54.54;99676.53;5053780;28;20049;-77
2022/02/04 07:27:12;;;;;;;41.42;20.25;;;;;;;2.62;54.37;99669.91;5036860;28;20074;-79
2022/02/04 07:29:39;;;;;;;43.60;21.33;;;;;;;2.72;54.35;99658.13;5054977;28;20037;-80
2022/02/04 07:35:36;;;;;;;47.72;21.17;;;;;;;3.31;54.06;99691.00;5047185;28;20114;-77
2022/02/04 07:40:56;;;;;;;48.10;22.70;;;;;;;3.57;53.67;99670.03;5020725;28;20112;-80
2022/02/04 07:43:32;;;;;;;48.25;22.75;;;;;;;3.55;52.55;99621.94;5019281;28;20048;-81
2022/02/04 07:45:58;;;;;;;45.25;21.85;;;;;;;4.26;52.75;99684.84;5035153;28;20044;-80
2022/02/04 07:48:27;;;;;;;46.03;22.92;;;;;;;4.65;52.60;99693.13;5018992;28;20037;-82
2022/02/04 07:50:53;;;;;;;46.78;23.80;;;;;;;4.79;52.23;99694.16;5054778;28;20041;-81
2022/02/04 07:53:20;;;;;;;42.53;22.58;;;;;;;4.89;51.51;99664.22;5036073;28;20043;-78
2022/02/04 07:55:49;;;;;;;44.40;21.30;;;;;;;5.45;50.77;99690.63;5018770;28;20447;-80
2022/02/04 07:58:15;;;;;;;38.25;20.98;;;;;;;5.93;51.26;99695.38;5035773;28;20515;-79
2022/02/04 08:00:42;;;;;;;39.78;20.40;;;;;;;6.54;50.67;99666.53;5035489;28;20531;-79
2022/02/04 08:06:12;;;;;;;36.38;19.02;;;;;;;8.00;48.95;99656.53;5018050;28;20103;-77
2022/02/04 08:08:55;;;;;;;40.70;20.20;;;;;;;8.79;47.82;99655.53;5018378;28;20040;-82
2022/02/04 08:11:28;;;;;;;40.55;20.50;;;;;;;10.14;47.10;99655.50;5053110;28;20044;-78
2022/02/04 08:27:36;;;;;;;30.30;18.20;;;;;;;13.17;41.50;99627.38;5057671;28;20040;-82
2022/02/04 08:30:48;;;;;;;29.40;17.90;;;;;;;14.80;40.07;99654.72;5037319;28;20049;-82
2022/02/04 08:32:52;;;;;;;28.88;17.83;;;;;;;16.33;38.14;99655.16;5048616;28;20045;-80
2022/02/04 08:51:25;;;;;;;23.98;16.58;;;;;;;18.19;30.94;99613.00;5047937;28;20033;-80
2022/02/04 08:54:10;;;;;;;24.95;16.70;;;;;;;17.60;30.88;99620.66;5011682;28;20091;-77
2022/02/04 08:57:17;;;;;;;27.60;18.42;;;;;;;17.67;30.60;99616.00;5022641;28;20101;-79
2022/02/04 09:02:53;;;;;;;27.83;17.60;;;;;;;19.65;29.64;99630.06;5024048;28;20048;-80
2022/02/04 09:05:10;;;;;;;;;;;;;;;20.07;28.98;99631.50;5042763;28;20075;-82
2022/02/04 09:10:21;;;;;;;23.30;16.63;;;;;;;19.62;28.60;99611.72;5041197;28;20068;-83
2022/02/04 09:23:24;;;;;;;26.83;18.15;;;;;;;15.80;32.33;99587.84;5049097;28;20091;-81
2022/02/04 09:25:50;;;;;;;26.98;18.08;;;;;;;16.07;33.72;99635.06;5050944;28;20202;-81
2022/02/04 09:28:16;;;;;;;24.90;17.38;;;;;;;15.85;34.48;99640.19;5051127;28;20047;-78
2022/02/04 09:30:44;;;;;;;26.92;17.83;;;;;;;16.12;36.01;99583.28;5052215;28;20037;-81
2022/02/04 09:33:12;;;;;;;28.48;17.13;;;;;;;17.04;35.87;99561.53;5035774;28;20065;-83
2022/02/04 09:35:39;;;;;;;23.80;17.30;;;;;;;18.61;35.30;99611.16;5053891;28;20024;-83
2022/02/04 09:38:06;;;;;;;21.65;15.43;;;;;;;19.91;34.57;99610.31;5038366;28;20052;-80
2022/02/04 09:40:32;;;;;;;25.63;16.50;;;;;;;20.53;33.66;99599.16;5072210;28;20075;-82
2022/02/04 09:42:59;;;;;;;23.15;16.33;;;;;;;21.33;31.70;99561.34;5039101;28;20051;-78
2022/02/04 09:45:27;;;;;;;22.75;16.90;;;;;;;22.30;30.99;99591.03;5055940;28;20045;-79
2022/02/04 09:48:04;;;;;;;24.13;17.30;;;;;;;22.95;29.94;99571.94;5041357;28;20045;-79
2022/02/04 09:50:32;;;;;;;21.50;15.48;;;;;;;23.48;28.78;99546.50;5059174;28;20049;-79
2022/02/04 10:18:15;;;;;;;19.05;14.70;;;;;;;25.63;22.12;99543.81;5049524;28;20041;-82
2022/02/04 10:20:42;;;;;;;20.67;15.20;;;;;;;24.51;21.77;99583.78;5048640;28;20491;-80
2022/02/04 10:23:09;;;;;;;22.05;15.60;;;;;;;22.00;22.23;99547.75;5053523;28;20052;-80
2022/02/04 10:25:42;;;;;;;21.13;15.57;;;;;;;20.12;23.12;99603.09;5035575;28;20060;-81
2022/02/04 10:28:25;;;;;;;22.60;15.68;;;;;;;18.11;23.94;99596.66;5056548;28;20040;-82
2022/02/04 10:31:14;;;;;;;20.77;15.10;;;;;;;16.38;24.89;99613.00;5044845;28;20097;-82
2022/02/04 10:34:06;;;;;;;20.27;14.88;;;;;;;13.93;26.32;99507.91;5040833;28;20053;-80
2022/02/04 10:47:45;;;;;;;20.98;13.50;;;;;;;10.02;30.22;99645.22;5054099;28;20122;-83
2022/02/04 10:59:24;;;;;;;21.63;12.70;;;;;;;7.46;32.46;99561.56;5064738;28;20037;-79
2022/02/04 11:33:13;;;;;;;17.23;8.98;;;;;;;4.75;36.22;99646.00;5043438;28;20040;-82
2022/02/04 11:35:17;;;;;;;15.45;7.72;;;;;;;4.32;36.98;99650.56;5042442;28;20049;-79
2022/02/04 11:52:25;;;;;;;13.75;8.30;;;;;;;2.82;39.09;99626.66;5058336;28;20007;-80
2022/02/04 11:54:55;;;;;;;18.05;9.20;;;;;;;2.70;39.03;99606.72;5068458;28;20049;-80
2022/02/04 11:57:31;;;;;;;20.02;9.95;;;;;;;2.77;39.38;99628.25;5065365;28;20048;-78
2022/02/04 12:00:00;;;;;;;19.58;8.60;;;;;;;2.63;39.95;99620.25;5030166;28;20033;-79
2022/02/04 12:02:29;;;;;;;17.60;8.13;;;;;;;2.74;40.11;99660.75;5026125;28;20044;-79
2022/02/04 12:05:07;;;;;;;16.25;8.32;;;;;;;2.69;40.27;99652.91;5062166;28;20045;-80
2022/02/04 12:07:39;;;;;;;15.25;8.60;;;;;;;2.16;40.49;99591.88;5069899;28;20076;-79
2022/02/04 12:10:14;;;;;;;17.38;7.80;;;;;;;2.62;40.94;99664.78;5053158;28;20044;-77
2022/02/04 12:12:55;;;;;;;13.52;6.88;;;;;;;2.66;40.57;99669.16;5045832;28;20087;-81
2022/02/04 12:15:35;;;;;;;14.98;6.93;;;;;;;2.62;40.90;99669.91;5038259;28;20424;-81
2022/02/04 12:18:02;;;;;;;13.80;6.60;;;;;;;2.39;41.06;99652.31;5037828;28;20048;-79
2022/02/04 12:20:58;;;;;;;13.30;6.82;;;;;;;2.53;41.41;99682.56;5037722;28;20094;-79
2022/02/04 12:23:47;;;;;;;15.50;7.07;;;;;;;2.45;41.45;99673.81;5023247;28;20089;-81
2022/02/04 12:26:28;;;;;;;14.27;6.80;;;;;;;2.31;41.29;99683.78;5040448;28;20040;-78
2022/02/04 12:29:06;;;;;;;13.10;5.63;;;;;;;2.35;41.64;99681.31;5022484;28;20065;-81
2022/02/04 12:31:35;;;;;;;10.27;6.18;;;;;;;2.02;41.75;99632.63;5054963;28;20066;-79
2022/02/04 12:34:17;;;;;;;10.07;5.30;;;;;;;2.05;41.91;99650.66;5035836;28;20420;-84
2022/02/04 12:36:57;;;;;;;11.70;6.15;;;;;;;2.08;41.82;99677.31;5054355;28;20417;-81
2022/02/04 12:39:33;;;;;;;12.93;6.03;;;;;;;1.65;42.40;99602.72;5019831;28;20071;-80
2022/02/04 12:42:05;;;;;;;12.90;6.30;;;;;;;2.11;42.20;99677.34;5037599;28;20063;-81
2022/02/04 12:44:41;;;;;;;15.30;6.47;;;;;;;1.95;42.23;99670.13;5018980;28;20029;-81
2022/02/04 12:47:25;;;;;;;11.98;6.40;;;;;;;1.87;42.63;99674.22;5035640;28;20052;-79
2022/02/04 12:49:54;;;;;;;11.48;5.57;;;;;;;1.70;42.80;99654.13;5021184;28;20040;-81
2022/02/04 12:54:53;;;;;;;11.35;6.00;;;;;;;1.77;42.59;99671.41;5037174;28;20036;-80
2022/02/04 13:08:41;;;;;;;18.65;8.90;;;;;;;1.48;43.54;99679.22;5058334;28;20507;-80
2022/02/04 13:11:10;;;;;;;14.00;7.28;;;;;;;1.49;43.78;99698.91;5057160;28;20048;-79
2022/02/04 13:13:45;;;;;;;14.70;7.40;;;;;;;1.35;44.14;99702.81;5007953;28;20041;-80
2022/02/04 13:16:31;;;;;;;15.35;8.25;;;;;;;1.27;43.69;99709.44;5012828;28;20045;-81
2022/02/04 13:18:59;;;;;;;15.27;8.13;;;;;;;1.13;44.65;99709.03;5043253;28;20570;-79
2022/02/04 13:21:26;;;;;;;19.90;8.60;;;;;;;1.08;44.70;99715.75;5028858;28;20041;-79
2022/02/04 13:23:52;;;;;;;32.75;13.73;;;;;;;0.79;44.46;99670.53;5011524;28;20186;-80
2022/02/04 13:26:25;;;;;;;36.67;14.95;;;;;;;1.07;44.54;99717.44;5025767;28;20071;-77
2022/02/04 13:28:58;;;;;;;40.10;16.83;;;;;;;0.98;44.79;99699.25;5058404;28;20062;-82
2022/02/04 13:31:25;;;;;;;35.15;14.50;;;;;;;0.99;45.03;99693.31;5025086;28;20041;-81
2022/02/04 13:33:52;;;;;;;30.23;14.50;;;;;;;0.74;44.82;99644.78;5038669;28;20068;-80
2022/02/04 13:36:36;;;;;;;30.73;13.23;;;;;;;1.13;45.40;99716.75;5057830;28;20045;-79
2022/02/04 13:39:27;;;;;;;31.83;13.73;;;;;;;0.92;45.52;99686.25;5058771;28;20500;-80
2022/02/04 13:42:26;;;;;;;21.83;11.00;;;;;;;0.90;45.68;99692.22;5042533;28;20048;-80
2022/02/04 13:45:08;;;;;;;21.98;11.00;;;;;;;0.92;45.62;99724.69;5029291;28;20045;-77
2022/02/04 13:47:57;;;;;;;21.13;10.57;;;;;;;0.67;45.54;99695.81;5054395;28;20017;-77
2022/02/04 13:50:45;;;;;;;26.17;12.30;;;;;;;0.73;45.79;99731.84;5064578;28;20154;-76
2022/02/04 13:53:31;;;;;;;26.05;11.73;;;;;;;0.63;46.22;99730.72;5043452;28;20048;-79
2022/02/04 13:56:14;;;;;;;24.67;11.02;;;;;;;0.56;46.44;99739.00;5026152;28;20453;-78
2022/02/04 13:58:51;;;;;;;24.65;12.20;;;;;;;0.51;46.57;99738.00;5025402;28;20040;-79
2022/02/04 14:03:51;;;;;;;27.63;12.20;;;;;;;0.35;46.92;99726.41;5059435;28;20393;-79
2022/02/04 14:06:24;;;;;;;26.98;11.82;;;;;;;0.17;46.75;99709.66;5021071;28;20103;-83
2022/02/04 14:11:34;;;;;;;27.15;11.98;;;;;;;0.07;47.03;99712.75;5035476;28;20037;-81
2022/02/04 14:14:04;;;;;;;19.15;9.60;;;;;;;0.33;47.30;99754.53;5046056;28;20059;-81
2022/02/04 14:16:30;;;;;;;23.05;10.20;;;;;;;-0.24;46.89;99671.72;5027069;28;20048;-81
2022/02/04 14:18:56;;;;;;;25.83;10.20;;;;;;;-0.12;47.30;99699.38;5010215;28;20045;-85
2022/02/04 14:21:22;;;;;;;21.48;10.07;;;;;;;0.13;47.53;99741.09;5059003;28;20037;-81
2022/02/04 14:23:57;;;;;;;22.90;10.25;;;;;;;0.22;47.35;99756.75;5058071;28;20044;-80
2022/02/04 14:26:34;;;;;;;20.25;9.32;;;;;;;-0.19;48.20;99693.16;5041547;28;20040;-80
2022/02/04 14:31:45;;;;;;;17.52;8.60;;;;;;;-0.65;47.93;99617.47;5042468;28;20045;-83
2022/02/04 14:53:24;;;;;;;19.45;9.32;;;;;;;0.12;48.48;99772.59;5045895;28;20025;-80
2022/02/04 15:01:33;;;;;;;24.13;9.68;;;;;;;-0.04;48.70;99763.59;5040415;28;20369;-80
2022/02/04 15:04:10;;;;;;;18.90;8.68;;;;;;;-0.09;48.80;99771.06;5056126;28;20043;-83
2022/02/04 15:06:38;;;;;;;20.27;8.63;;;;;;;-0.10;48.71;99761.66;5039249;28;20055;-82
2022/02/04 15:09:09;;;;;;;19.83;8.95;;;;;;;-0.17;48.48;99772.53;5059896;28;20037;-83
2022/02/04 15:11:39;;;;;;;20.60;8.83;;;;;;;-0.30;49.40;99755.88;5025805;28;20041;-82
2022/02/04 15:14:11;;;;;;;22.15;8.65;;;;;;;-0.78;49.12;99680.97;5041391;28;20040;-80
2022/02/04 15:16:39;;;;;;;22.03;9.10;;;;;;;-0.24;49.39;99781.69;5043960;28;20066;-82
2022/02/04 15:19:07;;;;;;;18.20;9.38;;;;;;;-0.27;49.44;99775.56;5042133;28;20326;-84
2022/02/04 15:21:34;;;;;;;22.02;10.18;;;;;;;-0.27;49.43;99779.03;5041983;28;20123;-79
2022/02/04 15:24:09;;;;;;;18.35;10.30;;;;;;;-1.22;48.94;99635.16;5023723;28;20049;-83
2022/02/04 15:26:35;;;;;;;22.45;9.65;;;;;;;-0.99;49.18;99681.06;5038908;28;20025;-86
2022/02/04 15:29:05;;;;;;;21.27;9.68;;;;;;;-1.06;49.61;99677.44;5052315;28;20049;-82
2022/02/04 15:31:56;;;;;;;20.63;11.35;;;;;;;-0.75;50.35;99713.41;5046584;28;20394;-85
2022/02/04 15:34:19;;;;;;;21.63;10.73;;;;;;;-1.08;49.62;99657.75;5061711;28;20140;-83
2022/02/04 15:36:46;;;;;;;23.30;10.73;;;;;;;-1.61;49.74;99586.94;5025379;28;20045;-87
2022/02/04 15:39:21;;;;;;;23.08;9.93;;;;;;;-1.77;50.19;99576.97;5024789;28;20037;-83
2022/02/04 15:42:03;;;;;;;18.65;9.65;;;;;;;-0.55;50.02;99792.53;5058403;28;20053;-85
2022/02/04 15:47:31;;;;;;;18.42;8.23;;;;;;;-1.67;50.71;99625.00;5040395;28;20118;-85
2022/02/04 15:50:18;;;;;;;17.02;7.22;;;;;;;-1.48;50.79;99684.41;5025104;28;20029;-82
2022/02/04 15:53:22;;;;;;;21.55;10.23;;;;;;;-0.73;50.76;99788.47;5043356;28;20091;-85
2022/02/04 15:58:38;;;;;;;16.70;7.85;;;;;;;-1.40;50.59;99700.84;5059411;28;20044;-79
2022/02/04 16:06:21;;;;;;;15.60;7.30;;;;;;;-0.89;50.35;99765.72;5036780;28;20052;-79
2022/02/04 16:08:54;;;;;;;16.02;8.52;;;;;;;-1.10;50.64;99748.78;5039783;28;20063;-78
2022/02/04 16:11:34;;;;;;;;;;;;;;;-0.96;51.26;99792.72;5036650;28;20067;-79
2022/02/04 16:16:33;;;;;;;15.63;8.05;;;;;;;-1.60;50.19;99712.88;5040198;28;20036;-79
2022/02/04 16:19:27;;;;;;;16.52;7.70;;;;;;;-1.80;51.13;99700.19;5054475;28;20041;-86
2022/02/04 16:29:55;;;;;;;16.35;7.75;;;;;;;-1.08;51.55;99801.66;5018542;28;20036;-79
2022/02/04 16:32:21;;;;;;;18.52;7.70;;;;;;;-1.11;51.48;99810.91;5056347;28;20047;-80
2022/02/04 16:34:57;;;;;;;17.58;7.45;;;;;;;-1.48;51.59;99754.16;5043180;28;20053;-76
2022/02/04 16:37:34;;;;;;;16.80;7.15;;;;;;;-1.33;51.38;99797.31;5019784;28;20036;-79
2022/02/04 16:40:13;;;;;;;12.65;7.07;;;;;;;-1.62;51.18;99766.38;5003960;28;20163;-80
2022/02/04 16:42:40;;;;;;;13.55;7.30;;;;;;;-1.54;51.30;99784.56;5021741;28;20094;-79
2022/02/04 16:45:07;;;;;;;14.70;7.45;;;;;;;-1.52;50.84;99799.13;5036525;28;20041;-81
2022/02/04 16:47:36;;;;;;;16.13;7.82;;;;;;;-1.56;51.85;99807.47;5038947;28;20095;-80
2022/02/04 16:50:10;;;;;;;20.65;8.15;;;;;;;-1.55;51.59;99814.31;5038183;28;20040;-78
2022/02/04 16:52:36;;;;;;;13.90;6.75;;;;;;;-1.98;52.29;99746.25;5003537;28;20567;-78
2022/02/04 16:55:02;;;;;;;16.42;6.50;;;;;;;-2.24;52.54;99702.69;5037120;28;20041;-81
2022/02/04 16:57:32;;;;;;;12.95;6.38;;;;;;;-2.02;52.29;99744.38;5021453;28;20123;-83
2022/02/04 17:00:07;;;;;;;18.15;7.43;;;;;;;-2.00;52.37;99742.75;5037179;28;20036;-79
2022/02/04 17:02:34;;;;;;;15.50;7.35;;;;;;;-1.74;52.14;99788.88;5020737;28;20032;-80
2022/02/04 17:04:59;;;;;;;14.05;7.03;;;;;;;-1.59;52.57;99824.34;5023266;28;20041;-79
2022/02/04 17:07:27;;;;;;;15.13;7.25;;;;;;;-1.72;52.59;99795.78;5043310;28;20520;-77
2022/02/04 17:09:54;;;;;;;14.13;7.47;;;;;;;-1.69;51.78;99805.25;5022867;28;20115;-77
2022/02/04 17:12:40;;;;;;;15.43;7.28;;;;;;;-1.58;52.56;99834.63;5022900;28;20036;-79
2022/02/04 17:15:06;;;;;;;13.45;6.90;;;;;;;-1.60;52.59;99846.44;5035992;28;20463;-80
2022/02/04 17:17:32;;;;;;;18.85;7.78;;;;;;;-1.75;52.51;99833.91;5003965;28;20135;-79
2022/02/04 17:20:13;;;;;;;15.23;7.65;;;;;;;-1.76;51.89;99847.47;5054507;28;20037;-78
2022/02/04 17:22:43;;;;;;;16.23;8.10;;;;;;;-1.98;53.19;99803.22;5055524;28;20028;-79
2022/02/04 17:25:12;;;;;;;16.60;7.80;;;;;;;-1.77;52.80;99842.31;5025410;28;20496;-78
2022/02/04 17:27:53;;;;;;;16.35;7.75;;;;;;;-2.00;53.09;99809.06;5025737;28;20045;-78
2022/02/04 17:30:19;;;;;;;14.13;7.35;;;;;;;-1.98;52.60;99822.75;5024702;28;20040;-76
2022/02/04 17:32:55;;;;;;;15.38;7.57;;;;;;;-2.00;52.64;99803.97;5037648;28;20098;-79
2022/02/04 17:35:23;;;;;;;15.68;7.70;;;;;;;-1.94;53.26;99819.53;5036134;28;20050;-77
2022/02/04 17:37:56;;;;;;;17.20;7.75;;;;;;;-2.04;52.63;99807.19;5019840;28;20041;-77
2022/02/04 17:40:34;;;;;;;16.63;8.07;;;;;;;-2.40;52.73;99764.91;5015365;28;20517;-77
2022/02/04 17:43:02;;;;;;;14.48;7.68;;;;;;;-2.16;52.69;99821.19;5003050;28;20044;-79
2022/02/04 17:45:29;;;;;;;16.85;9.32;;;;;;;-2.27;53.29;99809.63;5002729;28;20063;-79
2022/02/04 17:50:51;;;;;;;14.13;7.45;;;;;;;-2.10;53.16;99845.22;5028511;28;20072;-78
2022/02/04 17:53:20;;;;;;;15.65;8.23;;;;;;;-2.02;53.31;99865.13;5028645;28;20064;-79
2022/02/04 17:56:04;;;;;;;17.35;8.00;;;;;;;-2.10;52.64;99863.91;5050184;28;20136;-78
2022/02/04 17:58:48;;;;;;;13.73;7.22;;;;;;;-2.08;53.40;99852.09;5033856;28;20045;-80
2022/02/04 18:06:27;;;;;;;13.73;7.13;;;;;;;-2.08;53.06;99861.41;5056524;28;20528;-79
2022/02/04 18:08:54;;;;;;;19.35;9.13;;;;;;;-2.29;53.30;99826.53;5056281;28;20497;-80
2022/02/04 18:11:20;;;;;;;19.23;10.50;;;;;;;-2.19;53.10;99840.56;5023894;28;20041;-79
2022/02/04 18:13:45;;;;;;;19.65;9.52;;;;;;;-2.29;53.30;99835.09;5040908;28;20528;-78
2022/02/04 18:16:11;;;;;;;17.02;8.40;;;;;;;-2.31;53.51;99823.06;5023536;28;20045;-78
2022/02/04 18:18:37;;;;;;;18.65;9.10;;;;;;;-2.17;53.27;99855.13;5036350;28;20041;-78
2022/02/04 18:21:07;;;;;;;15.38;8.23;;;;;;;-2.26;53.50;99839.44;5039534;28;20099;-78
2022/02/04 18:23:33;;;;;;;17.48;8.15;;;;;;;-2.23;52.96;99851.47;5062371;28;20061;-78
2022/02/04 18:26:00;;;;;;;14.07;8.18;;;;;;;-2.35;53.24;99832.25;5043311;28;20048;-79
2022/02/04 18:28:27;;;;;;;16.63;8.60;;;;;;;-2.46;53.64;99821.59;5028489;28;20037;-80